Time;durP1;ratioP1;P1;durP2;ratioP2;P2;SDS_P1;SDS_P2;PMS_P1;PMS_P2;Temp;Humidity;BMP_temperature;BMP_pressure;BME280_temperature;BME280_humidity;BME280_pressure;Samples;Min_cycle;Max_cycle;Signal;HPM_P1;HPM_P2
2022/01/31 00:00:14;;;;;;;26.23;23.58;;;-3.60;99.80;-4.20;96197.00;;;;5062549;27;87727;-61
2022/01/31 00:02:42;;;;;;;25.75;23.08;;;-3.60;99.70;-4.20;96205.00;;;;5060917;27;87066;-61
2022/01/31 00:05:09;;;;;;;25.25;22.55;;;-3.60;99.80;-4.20;96197.00;;;;5054391;27;87016;-61
2022/01/31 00:07:36;;;;;;;25.98;23.15;;;-3.60;99.80;-4.20;96208.00;;;;5056328;27;87943;-61
2022/01/31 00:10:08;;;;;;;25.52;22.75;;;-3.70;99.80;-4.20;96203.00;;;;5063085;27;87543;-62
2022/01/31 00:12:45;;;;;;;;;;;-3.60;99.80;-4.20;96192.00;;;;5063119;27;87814;-61
2022/01/31 00:15:11;;;;;;;25.65;22.92;;;-3.60;99.80;-4.20;96190.00;;;;5062582;27;87441;-60
2022/01/31 00:17:38;;;;;;;24.98;22.38;;;-3.70;99.80;-4.20;96188.00;;;;5047718;27;91707;-60
2022/01/31 00:20:04;;;;;;;24.20;21.73;;;-3.70;99.80;-4.20;96188.00;;;;5060806;27;88409;-60
2022/01/31 00:22:31;;;;;;;24.45;22.02;;;-3.70;99.80;-4.20;96187.00;;;;5061453;27;87280;-61
2022/01/31 00:24:57;;;;;;;24.17;21.75;;;-3.60;99.90;-4.20;96187.00;;;;5060892;27;87011;-60
2022/01/31 00:27:23;;;;;;;24.90;22.45;;;-3.60;99.90;-4.20;96202.00;;;;5046489;27;89938;-61
2022/01/31 00:29:49;;;;;;;25.05;22.45;;;-3.70;99.80;-4.20;96185.00;;;;5062114;27;87723;-61
2022/01/31 00:32:15;;;;;;;24.77;22.17;;;-3.60;99.90;-4.20;96195.00;;;;5062351;27;87272;-61
2022/01/31 00:34:41;;;;;;;24.73;22.23;;;-3.60;99.90;-4.20;96188.00;;;;5062036;27;86668;-61
2022/01/31 00:37:07;;;;;;;23.83;21.50;;;-3.60;99.80;-4.20;96180.00;;;;5061611;27;87684;-61
2022/01/31 00:39:35;;;;;;;24.33;21.75;;;-3.60;99.80;-4.20;96178.00;;;;5049889;27;88658;-60
2022/01/31 00:42:04;;;;;;;25.67;22.98;;;-3.60;99.80;-4.10;96177.00;;;;5061463;27;88642;-60
2022/01/31 00:44:46;;;;;;;25.38;22.75;;;-3.60;99.80;-4.10;96164.00;;;;5061750;27;87596;-61
2022/01/31 00:47:23;;;;;;;24.50;22.05;;;-3.50;99.80;-4.10;96170.00;;;;5055983;27;88056;-60
2022/01/31 00:49:52;;;;;;;25.20;22.70;;;-3.50;99.80;-4.10;96178.00;;;;5060928;27;88619;-62
2022/01/31 00:52:19;;;;;;;24.92;22.33;;;-3.50;99.80;-4.10;96173.00;;;;5061624;27;87121;-61
2022/01/31 00:54:46;;;;;;;25.20;22.40;;;-3.50;99.80;-4.10;96172.00;;;;5059079;27;87554;-61
2022/01/31 00:57:12;;;;;;;24.83;22.35;;;-3.50;99.80;-4.10;96165.00;;;;5062007;27;87589;-60
2022/01/31 00:59:39;;;;;;;25.90;23.40;;;-3.50;99.70;-4.10;96171.00;;;;5062110;27;87539;-60
2022/01/31 01:02:05;;;;;;;24.95;22.50;;;-3.50;99.80;-4.10;96160.00;;;;5061930;27;87295;-61
2022/01/31 01:04:31;;;;;;;26.08;23.52;;;-3.50;99.80;-4.10;96169.00;;;;5060645;27;87786;-60
2022/01/31 01:06:57;;;;;;;26.10;23.50;;;-3.50;99.70;-4.00;96172.00;;;;5054263;27;88508;-60
2022/01/31 01:09:23;;;;;;;24.90;22.40;;;-3.50;99.70;-4.00;96154.00;;;;5047784;27;89141;-60
2022/01/31 01:11:49;;;;;;;25.75;23.35;;;-3.50;99.70;-4.00;96153.00;;;;5041701;27;87362;-61
2022/01/31 01:14:15;;;;;;;25.65;23.13;;;-3.50;99.70;-4.00;96158.00;;;;5060498;27;87498;-61
2022/01/31 01:16:41;;;;;;;27.75;24.05;;;-3.50;99.70;-4.00;96154.00;;;;5061042;27;87759;-61
2022/01/31 01:19:07;;;;;;;25.02;22.63;;;-3.50;99.70;-4.00;96143.00;;;;5055716;27;87291;-61
2022/01/31 01:21:34;;;;;;;25.15;22.63;;;-3.50;99.60;-4.00;96154.00;;;;5054350;27;87781;-62
2022/01/31 01:24:00;;;;;;;25.70;23.10;;;-3.40;99.60;-4.00;96147.00;;;;5061837;27;86334;-62
2022/01/31 01:26:26;;;;;;;24.40;21.95;;;-3.50;99.50;-4.00;96168.00;;;;5060234;27;89633;-60
2022/01/31 01:29:03;;;;;;;26.98;24.10;;;-3.50;99.70;-4.00;96162.00;;;;5037804;27;89593;-61
2022/01/31 01:31:31;;;;;;;27.88;25.15;;;-3.40;99.80;-4.00;96162.00;;;;5048984;27;88147;-62
2022/01/31 01:33:57;;;;;;;25.75;23.20;;;-3.40;99.70;-4.00;96170.00;;;;5048556;27;87201;-62
2022/01/31 01:36:23;;;;;;;26.40;23.60;;;-3.40;99.70;-4.00;96156.00;;;;5036519;27;88605;-60
2022/01/31 01:38:50;;;;;;;26.33;23.55;;;-3.40;99.60;-3.90;96169.00;;;;5037263;27;89587;-61
2022/01/31 01:41:16;;;;;;;26.50;23.83;;;-3.40;99.70;-3.90;96171.00;;;;5060876;27;87015;-60
2022/01/31 01:43:43;;;;;;;26.85;23.92;;;-3.30;99.70;-3.90;96166.00;;;;5048325;27;87159;-60
2022/01/31 01:46:09;;;;;;;27.27;24.58;;;-3.30;99.60;-3.90;96175.00;;;;5050020;27;88765;-60
2022/01/31 01:48:35;;;;;;;25.42;22.73;;;-3.30;99.50;-3.90;96177.00;;;;5049786;27;88639;-60
2022/01/31 01:51:03;;;;;;;26.85;24.25;;;-3.30;99.60;-3.90;96170.00;;;;5028274;28;87687;-60
2022/01/31 01:53:30;;;;;;;26.27;23.48;;;-3.30;99.60;-3.90;96174.00;;;;5048233;27;87355;-60
2022/01/31 01:55:56;;;;;;;26.02;23.15;;;-3.30;99.50;-3.90;96173.00;;;;5050310;27;90782;-60
2022/01/31 01:58:37;;;;;;;27.38;24.58;;;-3.30;99.50;-3.90;96174.00;;;;5054604;27;88271;-60
2022/01/31 02:01:04;;;;;;;27.40;24.50;;;-3.30;99.60;-3.90;96164.00;;;;5051863;27;87047;-61
2022/01/31 02:03:47;;;;;;;26.38;23.58;;;-3.30;99.60;-3.90;96166.00;;;;5030820;27;87295;-61
2022/01/31 02:06:14;;;;;;;28.75;25.65;;;-3.30;99.70;-3.90;96163.00;;;;5038604;27;88711;-61
2022/01/31 02:08:44;;;;;;;28.83;25.25;;;-3.30;99.70;-3.90;96159.00;;;;5046820;27;88095;-60
2022/01/31 02:11:15;;;;;;;28.38;25.42;;;-3.30;99.70;-3.80;96157.00;;;;5043224;27;87360;-61
2022/01/31 02:13:46;;;;;;;;;;;-3.20;99.80;-3.80;96157.00;;;;5045885;27;86566;-60
2022/01/31 02:16:13;;;;;;;28.48;25.58;;;-3.30;99.70;-3.80;96160.00;;;;5060956;27;87618;-60
2022/01/31 02:18:54;;;;;;;30.15;26.98;;;-3.30;99.80;-3.80;96155.00;;;;5055664;27;89723;-60
2022/01/31 02:21:38;;;;;;;28.88;25.98;;;-3.30;99.80;-3.80;96164.00;;;;5060256;27;87829;-60
2022/01/31 02:24:28;;;;;;;29.90;26.70;;;-3.30;99.80;-3.80;96152.00;;;;5060063;27;87023;-60
2022/01/31 02:27:38;;;;;;;29.48;26.33;;;-3.20;99.90;-3.80;96163.00;;;;5041061;27;87729;-60
2022/01/31 02:30:16;;;;;;;29.90;26.65;;;-3.20;99.80;-3.80;96158.00;;;;5045370;27;89080;-61
2022/01/31 02:32:46;;;;;;;31.92;26.50;;;-3.30;99.80;-3.80;96161.00;;;;5052006;27;87029;-60
2022/01/31 02:35:13;;;;;;;30.38;26.33;;;-3.20;99.90;-3.80;96156.00;;;;5046302;27;87443;-60
2022/01/31 02:37:39;;;;;;;30.45;25.60;;;-3.30;99.90;-3.80;96149.00;;;;5060407;27;87110;-60
2022/01/31 02:40:24;;;;;;;30.55;26.02;;;-3.20;99.90;-3.80;96156.00;;;;5045950;27;87249;-61
2022/01/31 02:42:53;;;;;;;34.22;27.50;;;-3.20;99.90;-3.80;96169.00;;;;5047646;27;87155;-61
2022/01/31 02:45:23;;;;;;;31.77;27.15;;;-3.20;99.90;-3.80;96159.00;;;;5052565;27;87013;-60
2022/01/31 02:47:56;;;;;;;32.90;27.92;;;-3.20;99.90;-3.80;96164.00;;;;5054478;27;89608;-60
2022/01/31 02:50:23;;;;;;;33.38;27.52;;;-3.20;99.90;-3.80;96174.00;;;;5046026;27;88832;-60
2022/01/31 02:53:00;;;;;;;30.73;26.55;;;-3.20;99.90;-3.80;96168.00;;;;5043587;27;87102;-60
2022/01/31 02:55:27;;;;;;;29.55;25.38;;;-3.20;99.90;-3.80;96154.00;;;;5056416;27;87740;-60
2022/01/31 02:57:54;;;;;;;30.15;25.92;;;-3.20;99.90;-3.80;96165.00;;;;5052144;27;88657;-60
2022/01/31 03:00:21;;;;;;;29.40;26.30;;;-3.20;99.90;-3.80;96164.00;;;;5051754;27;87405;-60
2022/01/31 03:03:07;;;;;;;33.17;27.83;;;-3.20;99.90;-3.70;96163.00;;;;5042456;27;87425;-60
2022/01/31 03:05:36;;;;;;;33.70;26.33;;;-3.20;99.90;-3.80;96163.00;;;;5055384;27;86181;-61
2022/01/31 03:08:06;;;;;;;32.15;26.58;;;-3.20;99.90;-3.80;96169.00;;;;5056558;27;87652;-62
2022/01/31 03:10:34;;;;;;;31.50;26.30;;;-3.20;99.90;-3.70;96165.00;;;;5039562;27;87434;-60
2022/01/31 03:13:00;;;;;;;32.47;25.85;;;-3.20;99.90;-3.70;96170.00;;;;5045114;27;87966;-60
2022/01/31 03:15:30;;;;;;;29.52;26.33;;;-3.20;99.90;-3.70;96162.00;;;;5047485;27;87146;-59
2022/01/31 03:18:11;;;;;;;33.53;26.77;;;-3.20;99.90;-3.70;96164.00;;;;5062651;27;87671;-60
2022/01/31 03:20:38;;;;;;;31.23;27.33;;;-3.20;99.90;-3.70;96169.00;;;;5054082;27;88895;-60
2022/01/31 03:23:04;;;;;;;31.58;26.17;;;-3.20;99.90;-3.70;96171.00;;;;5054005;27;87142;-60
2022/01/31 03:25:33;;;;;;;30.50;27.17;;;-3.20;99.90;-3.70;96169.00;;;;5040363;27;87176;-60
2022/01/31 03:28:00;;;;;;;32.88;27.33;;;-3.20;99.90;-3.70;96174.00;;;;5062822;27;88174;-60
2022/01/31 03:30:26;;;;;;;35.22;28.63;;;-3.10;99.90;-3.70;96167.00;;;;5043122;27;89875;-60
2022/01/31 03:32:56;;;;;;;34.33;27.55;;;-3.10;99.90;-3.70;96163.00;;;;5057025;27;87361;-59
2022/01/31 03:35:23;;;;;;;32.20;27.45;;;-3.10;99.90;-3.70;96177.00;;;;5057386;27;87367;-59
2022/01/31 03:37:50;;;;;;;29.63;26.25;;;-3.10;99.90;-3.70;96160.00;;;;5059996;27;89310;-59
2022/01/31 03:40:22;;;;;;;33.97;28.00;;;-3.10;99.90;-3.70;96174.00;;;;5051183;27;88431;-59
2022/01/31 03:42:48;;;;;;;33.97;28.85;;;-3.10;99.90;-3.70;96170.00;;;;5055780;27;87110;-60
2022/01/31 03:45:14;;;;;;;32.65;28.17;;;-3.10;99.90;-3.70;96169.00;;;;5055564;27;87438;-60
2022/01/31 03:47:44;;;;;;;32.65;27.35;;;-3.10;99.90;-3.70;96174.00;;;;5057335;27;87449;-60
2022/01/31 03:50:17;;;;;;;32.58;28.02;;;-3.10;99.90;-3.60;96168.00;;;;5053652;27;87241;-60
2022/01/31 03:52:48;;;;;;;30.55;27.30;;;-3.10;99.90;-3.70;96173.00;;;;5059109;27;87048;-60
2022/01/31 03:55:15;;;;;;;38.05;28.08;;;-3.10;99.90;-3.70;96160.00;;;;5046333;27;86310;-60
2022/01/31 03:57:42;;;;;;;34.78;29.08;;;-3.20;99.90;-3.70;96168.00;;;;5051074;27;88595;-60
2022/01/31 04:00:32;;;;;;;32.88;27.60;;;-3.10;99.90;-3.70;96157.00;;;;5053078;27;88025;-60
2022/01/31 04:02:58;;;;;;;35.70;28.67;;;-3.10;99.90;-3.70;96161.00;;;;5062435;27;87832;-60
2022/01/31 04:05:24;;;;;;;36.05;27.50;;;-3.10;99.90;-3.70;96167.00;;;;5062485;27;87097;-60
2022/01/31 04:07:50;;;;;;;36.47;28.15;;;-3.10;99.90;-3.70;96153.00;;;;5062388;27;87567;-60
2022/01/31 04:10:16;;;;;;;35.20;28.40;;;-3.10;99.90;-3.70;96161.00;;;;5061955;27;88202;-60
2022/01/31 04:12:42;;;;;;;34.25;28.02;;;-3.20;99.90;-3.70;96158.00;;;;5062864;27;87939;-60
2022/01/31 04:15:08;;;;;;;33.50;27.60;;;-3.20;99.90;-3.70;96153.00;;;;5061306;27;88056;-60
2022/01/31 04:17:37;;;;;;;34.55;28.00;;;-3.10;99.90;-3.70;96159.00;;;;5061091;27;87725;-61
2022/01/31 04:20:05;;;;;;;34.17;29.20;;;-3.20;99.90;-3.70;96163.00;;;;5062658;27;87416;-61
2022/01/31 04:22:34;;;;;;;33.42;27.48;;;-3.20;99.90;-3.70;96160.00;;;;5047219;27;87054;-61
2022/01/31 04:25:03;;;;;;;36.25;28.58;;;-3.10;99.90;-3.70;96161.00;;;;5055202;27;88057;-60
2022/01/31 04:27:33;;;;;;;35.40;28.33;;;-3.10;99.90;-3.70;96143.00;;;;5061192;27;88339;-60
2022/01/31 04:29:59;;;;;;;33.90;28.90;;;-3.10;99.90;-3.70;96161.00;;;;5054948;27;88216;-61
2022/01/31 04:32:25;;;;;;;32.67;27.73;;;-3.10;99.90;-3.70;96156.00;;;;5054480;27;87001;-60
2022/01/31 04:34:51;;;;;;;32.85;28.23;;;-3.10;99.90;-3.70;96152.00;;;;5061646;27;87141;-61
2022/01/31 04:37:17;;;;;;;35.75;28.88;;;-3.10;99.90;-3.70;96163.00;;;;5062401;27;88352;-62
2022/01/31 04:39:43;;;;;;;31.10;26.88;;;-3.10;99.90;-3.70;96162.00;;;;5061109;27;87640;-60
2022/01/31 04:42:09;;;;;;;34.42;28.17;;;-3.10;99.90;-3.70;96155.00;;;;5051861;27;87267;-60
2022/01/31 04:44:36;;;;;;;35.05;28.02;;;-3.10;99.90;-3.60;96159.00;;;;5050330;27;86735;-60
2022/01/31 04:47:03;;;;;;;30.67;27.38;;;-3.10;99.90;-3.60;96159.00;;;;5061145;27;87635;-61
2022/01/31 04:49:29;;;;;;;35.25;27.42;;;-3.10;99.90;-3.60;96153.00;;;;5052049;27;87942;-60
2022/01/31 04:51:55;;;;;;;34.45;27.88;;;-3.10;99.90;-3.60;96148.00;;;;5060769;27;87996;-61
2022/01/31 04:54:21;;;;;;;29.45;25.60;;;-3.10;99.90;-3.60;96151.00;;;;5060996;27;87162;-61
2022/01/31 04:56:47;;;;;;;33.95;27.90;;;-3.10;99.90;-3.60;96156.00;;;;5061686;27;87589;-61
2022/01/31 04:59:13;;;;;;;32.38;26.80;;;-3.10;99.90;-3.60;96156.00;;;;5049191;27;89111;-61
2022/01/31 05:01:42;;;;;;;36.38;28.35;;;-3.10;99.90;-3.60;96159.00;;;;5061072;27;86952;-61
2022/01/31 05:04:08;;;;;;;31.30;26.60;;;-3.00;99.90;-3.60;96158.00;;;;5060019;27;87271;-61
2022/01/31 05:06:37;;;;;;;32.10;27.08;;;-3.00;99.90;-3.60;96156.00;;;;5045427;27;87658;-61
2022/01/31 05:09:04;;;;;;;34.80;27.15;;;-3.00;99.90;-3.60;96160.00;;;;5061033;27;87460;-61
2022/01/31 05:11:31;;;;;;;31.23;25.85;;;-3.10;99.90;-3.60;96158.00;;;;5061364;27;87028;-60
2022/01/31 05:13:57;;;;;;;33.78;27.25;;;-3.10;99.90;-3.60;96162.00;;;;5060109;27;87029;-61
2022/01/31 05:16:23;;;;;;;33.50;27.45;;;-3.10;99.90;-3.60;96163.00;;;;5042239;27;89827;-61
2022/01/31 05:18:49;;;;;;;32.92;28.02;;;-3.10;99.90;-3.60;96165.00;;;;5058008;27;89476;-61
2022/01/31 05:21:15;;;;;;;32.72;27.40;;;-3.00;99.90;-3.60;96165.00;;;;5050319;27;87184;-61
2022/01/31 05:23:42;;;;;;;32.60;27.25;;;-3.00;99.90;-3.60;96173.00;;;;5050401;27;87379;-61
2022/01/31 05:26:08;;;;;;;35.38;27.10;;;-3.00;99.90;-3.50;96167.00;;;;5060841;27;87742;-61
2022/01/31 05:28:34;;;;;;;30.85;26.73;;;-3.00;99.90;-3.50;96167.00;;;;5060458;27;87073;-61
2022/01/31 05:31:00;;;;;;;33.45;27.52;;;-3.00;99.90;-3.50;96179.00;;;;5060148;27;87078;-61
2022/01/31 05:33:26;;;;;;;34.00;27.95;;;-3.00;99.90;-3.50;96177.00;;;;5060957;27;86438;-60
2022/01/31 05:35:53;;;;;;;35.83;28.73;;;-2.90;99.90;-3.50;96171.00;;;;5059224;27;87712;-61
2022/01/31 05:38:19;;;;;;;33.38;28.55;;;-2.90;99.90;-3.50;96174.00;;;;5060643;27;88509;-61
2022/01/31 05:40:45;;;;;;;34.03;28.73;;;-2.90;99.90;-3.50;96176.00;;;;5060044;27;88596;-61
2022/01/31 05:43:11;;;;;;;35.92;29.90;;;-2.90;99.90;-3.40;96184.00;;;;5059954;27;87152;-61
2022/01/31 05:45:37;;;;;;;37.05;30.02;;;-2.90;99.90;-3.40;96185.00;;;;5060509;27;87602;-61
2022/01/31 05:48:03;;;;;;;41.00;31.63;;;-2.90;99.90;-3.40;96184.00;;;;5060412;27;88035;-61
2022/01/31 05:50:30;;;;;;;38.58;31.15;;;-2.90;99.90;-3.40;96188.00;;;;5059703;27;87797;-61
2022/01/31 05:52:56;;;;;;;36.78;29.98;;;-2.90;99.90;-3.40;96179.00;;;;5060514;27;87452;-61
2022/01/31 05:55:22;;;;;;;35.78;29.85;;;-2.90;99.90;-3.40;96193.00;;;;5060260;27;87658;-61
2022/01/31 05:57:48;;;;;;;39.78;32.25;;;-2.90;99.90;-3.40;96180.00;;;;5060813;27;87561;-61
2022/01/31 06:00:15;;;;;;;40.17;32.25;;;-2.90;99.90;-3.40;96179.00;;;;5060325;27;86926;-61
2022/01/31 06:02:41;;;;;;;37.40;30.17;;;-2.80;99.90;-3.40;96181.00;;;;5060935;27;87122;-62
2022/01/31 06:05:10;;;;;;;38.28;30.40;;;-2.80;99.90;-3.30;96186.00;;;;5052895;27;89642;-62
2022/01/31 06:07:36;;;;;;;40.15;30.50;;;-2.80;99.90;-3.30;96179.00;;;;5060702;27;89349;-61
2022/01/31 06:10:03;;;;;;;36.75;29.52;;;-2.80;99.90;-3.30;96177.00;;;;5060229;27;86962;-61
2022/01/31 06:12:30;;;;;;;36.92;31.08;;;-2.80;99.90;-3.30;96185.00;;;;5059969;27;87504;-61
2022/01/31 06:14:56;;;;;;;36.35;29.83;;;-2.80;99.90;-3.20;96180.00;;;;5053144;27;87475;-61
2022/01/31 06:17:22;;;;;;;35.58;29.20;;;-2.70;99.90;-3.20;96179.00;;;;5059617;27;87312;-61
2022/01/31 06:19:48;;;;;;;40.42;30.40;;;-2.70;99.90;-3.20;96159.00;;;;5060239;27;87367;-61
2022/01/31 06:22:14;;;;;;;36.42;31.48;;;-2.70;99.90;-3.20;96173.00;;;;5060647;27;86380;-61
2022/01/31 06:24:41;;;;;;;43.30;30.75;;;-2.70;99.90;-3.20;96171.00;;;;5059925;27;88030;-61
2022/01/31 06:27:22;;;;;;;38.15;31.38;;;-2.70;99.90;-3.20;96164.00;;;;5053930;27;87356;-61
2022/01/31 06:29:48;;;;;;;37.97;31.70;;;-2.70;99.90;-3.20;96161.00;;;;5054102;27;87857;-61
2022/01/31 06:32:25;;;;;;;39.88;31.25;;;-2.70;99.90;-3.10;96167.00;;;;5052714;27;87106;-61
2022/01/31 06:34:53;;;;;;;43.08;32.08;;;-2.60;99.90;-3.10;96164.00;;;;5059606;27;88031;-60
2022/01/31 06:37:19;;;;;;;49.67;34.28;;;-2.60;99.90;-3.10;96164.00;;;;5042296;27;87603;-61
2022/01/31 06:39:45;;;;;;;45.28;33.38;;;-2.60;99.90;-3.00;96149.00;;;;5059838;27;87015;-61
2022/01/31 06:42:11;;;;;;;47.08;34.65;;;-2.50;99.90;-3.00;96160.00;;;;5060015;27;87001;-61
2022/01/31 06:44:39;;;;;;;47.33;33.63;;;-2.50;99.90;-3.00;96159.00;;;;5059882;27;87829;-61
2022/01/31 06:47:05;;;;;;;47.13;35.65;;;-2.50;99.90;-2.90;96163.00;;;;5060506;27;87491;-61
2022/01/31 06:49:31;;;;;;;49.80;34.53;;;-2.40;99.90;-2.90;96150.00;;;;5063640;27;87454;-61
2022/01/31 06:51:57;;;;;;;51.03;35.70;;;-2.40;99.90;-2.90;96153.00;;;;5063315;27;87477;-61
2022/01/31 06:54:24;;;;;;;51.78;35.92;;;-2.40;99.90;-2.80;96160.00;;;;5061617;27;88842;-61
2022/01/31 06:56:50;;;;;;;48.55;36.80;;;-2.30;99.90;-2.80;96164.00;;;;5063100;27;88482;-61
2022/01/31 06:59:16;;;;;;;48.13;33.95;;;-2.30;99.90;-2.80;96165.00;;;;5063792;27;86887;-61
2022/01/31 07:01:42;;;;;;;48.42;34.92;;;-2.30;99.90;-2.80;96162.00;;;;5049651;27;87632;-61
2022/01/31 07:04:08;;;;;;;42.78;32.78;;;-2.30;99.90;-2.80;96163.00;;;;5062194;27;87665;-64
2022/01/31 07:06:34;;;;;;;43.03;31.50;;;-2.30;99.90;-2.70;96183.00;;;;5052282;27;87430;-62
2022/01/31 07:09:00;;;;;;;43.38;34.58;;;-2.20;99.90;-2.70;96164.00;;;;5063765;27;86835;-62
2022/01/31 07:11:31;;;;;;;39.20;31.65;;;-2.20;99.90;-2.70;96161.00;;;;5063693;27;87276;-61
2022/01/31 07:14:06;;;;;;;42.95;33.08;;;-2.20;99.90;-2.60;96165.00;;;;5062572;27;87638;-61
2022/01/31 07:16:34;;;;;;;43.17;33.70;;;-2.10;99.90;-2.60;96163.00;;;;5062541;27;87614;-61
2022/01/31 07:19:07;;;;;;;42.20;33.40;;;-2.10;99.90;-2.50;96155.00;;;;5059793;27;87989;-61
2022/01/31 07:21:45;;;;;;;44.33;34.28;;;-2.00;99.90;-2.50;96163.00;;;;5063088;27;87410;-62
2022/01/31 07:24:22;;;;;;;44.72;34.33;;;-2.00;99.90;-2.50;96155.00;;;;5057478;27;88178;-60
2022/01/31 07:26:49;;;;;;;45.40;32.92;;;-2.00;99.90;-2.40;96162.00;;;;5063466;27;87460;-61
2022/01/31 07:29:19;;;;;;;41.63;32.65;;;-1.90;99.90;-2.30;96170.00;;;;5063113;27;87567;-60
2022/01/31 07:31:46;;;;;;;40.70;32.47;;;-1.80;99.90;-2.20;96164.00;;;;5062985;27;87054;-61
2022/01/31 07:34:14;;;;;;;44.00;34.33;;;-1.70;99.90;-2.20;96171.00;;;;5062540;27;88033;-62
2022/01/31 07:36:42;;;;;;;45.67;34.13;;;-1.70;99.90;-2.20;96159.00;;;;5063526;27;86711;-62
2022/01/31 07:39:09;;;;;;;47.95;33.97;;;-1.70;99.80;-2.20;96165.00;;;;5054830;27;87961;-61
2022/01/31 07:41:35;;;;;;;52.92;37.67;;;-1.70;99.80;-2.30;96156.00;;;;5062578;27;87121;-61
2022/01/31 07:44:01;;;;;;;50.15;36.40;;;-1.80;99.70;-2.30;96164.00;;;;5061872;27;88626;-62
2022/01/31 07:46:27;;;;;;;49.45;37.35;;;-1.80;99.90;-2.20;96175.00;;;;5062541;27;87399;-62
2022/01/31 07:48:54;;;;;;;58.45;36.78;;;-1.80;99.90;-2.30;96165.00;;;;5062618;27;87208;-61
2022/01/31 07:51:21;;;;;;;50.95;36.00;;;-1.80;99.90;-2.20;96166.00;;;;5062187;27;87121;-61
2022/01/31 07:53:48;;;;;;;55.03;36.60;;;-1.70;99.90;-2.20;96160.00;;;;5058278;27;88858;-60
2022/01/31 07:56:16;;;;;;;53.80;36.50;;;-1.70;99.90;-2.10;96178.00;;;;5062920;27;87501;-60
2022/01/31 07:58:42;;;;;;;56.83;37.30;;;-1.60;99.90;-2.10;96171.00;;;;5061859;27;86955;-60
2022/01/31 08:01:09;;;;;;;51.67;37.40;;;-1.60;99.90;-2.10;96160.00;;;;5062650;27;86324;-60
2022/01/31 08:03:36;;;;;;;54.05;36.88;;;-1.60;99.90;-2.10;96168.00;;;;5061694;27;88379;-61
2022/01/31 08:06:04;;;;;;;60.08;39.28;;;-1.60;99.90;-2.10;96157.00;;;;5062204;27;87377;-60
2022/01/31 08:08:31;;;;;;;57.15;36.95;;;-1.60;99.90;-2.00;96153.00;;;;5062280;27;88134;-60
2022/01/31 08:10:58;;;;;;;53.92;37.95;;;-1.50;99.90;-2.00;96163.00;;;;5043404;27;87096;-58
2022/01/31 08:13:25;;;;;;;57.60;38.15;;;-1.50;99.90;-1.90;96150.00;;;;5061886;27;87657;-60
2022/01/31 08:16:09;;;;;;;62.35;39.63;;;-1.40;99.90;-1.80;96163.00;;;;5047999;27;88622;-59
2022/01/31 08:18:44;;;;;;;54.63;37.80;;;-1.40;99.90;-1.70;96170.00;;;;5061879;27;87066;-62
2022/01/31 08:21:14;;;;;;;60.13;39.70;;;-1.30;99.90;-1.80;96167.00;;;;5062322;27;87068;-61
2022/01/31 08:23:41;;;;;;;60.83;38.65;;;-1.30;99.80;-1.90;96171.00;;;;5061897;27;87647;-62
2022/01/31 08:26:12;;;;;;;61.53;39.80;;;-1.40;99.90;-2.00;96161.00;;;;5061699;27;87516;-60
2022/01/31 08:31:11;;;;;;;65.32;41.85;;;-1.60;99.90;-2.10;96175.00;;;;5061925;27;86950;-62
2022/01/31 08:36:17;;;;;;;67.43;40.95;;;-1.60;99.90;-2.10;96163.00;;;;5062283;27;88365;-62
2022/01/31 08:38:45;;;;;;;68.07;41.90;;;-1.60;99.90;-2.10;96176.00;;;;5061910;27;87276;-62
2022/01/31 08:41:13;;;;;;;67.60;41.08;;;-1.70;99.90;-2.10;96175.00;;;;5061891;27;86993;-62
2022/01/31 08:43:40;;;;;;;66.30;41.88;;;-1.60;99.90;-2.10;96163.00;;;;5060895;27;87687;-62
2022/01/31 08:46:08;;;;;;;73.63;45.80;;;-1.60;99.90;-2.10;96162.00;;;;5061479;27;88446;-62
2022/01/31 08:48:35;;;;;;;63.25;40.15;;;-1.70;99.90;-2.10;96155.00;;;;5060008;27;87354;-62
2022/01/31 08:51:03;;;;;;;59.10;40.97;;;-1.60;99.90;-2.10;96157.00;;;;5056118;27;86742;-60
2022/01/31 08:53:32;;;;;;;63.53;41.60;;;-1.60;99.90;-2.10;96160.00;;;;5060914;27;87739;-61
2022/01/31 08:56:17;;;;;;;63.33;41.47;;;-1.60;99.90;-2.10;96162.00;;;;5060645;27;87503;-60
2022/01/31 08:58:47;;;;;;;65.57;41.60;;;-1.70;99.90;-2.10;96162.00;;;;5049644;27;87984;-61
2022/01/31 09:01:18;;;;;;;59.13;39.88;;;-1.60;99.90;-2.10;96153.00;;;;5057376;27;87249;-61
2022/01/31 09:06:25;;;;;;;66.05;40.92;;;-1.60;99.90;-2.10;96153.00;;;;5041680;27;87479;-62
2022/01/31 09:08:52;;;;;;;61.40;40.53;;;-1.70;99.90;-2.10;96145.00;;;;5061389;27;87440;-61
2022/01/31 09:11:18;;;;;;;61.90;40.40;;;-1.70;99.90;-2.20;96152.00;;;;5061244;27;87095;-62
2022/01/31 09:13:45;;;;;;;68.65;42.47;;;-1.70;99.90;-2.30;96144.00;;;;5059743;27;88166;-62
2022/01/31 09:16:12;;;;;;;57.17;40.78;;;-1.80;99.90;-2.20;96150.00;;;;5059279;27;87446;-63
2022/01/31 09:18:38;;;;;;;59.35;42.22;;;-1.80;99.90;-2.20;96156.00;;;;5060919;27;87026;-62
2022/01/31 09:21:05;;;;;;;63.22;42.40;;;-1.80;99.90;-2.20;96161.00;;;;5061607;27;86917;-61
2022/01/31 09:23:31;;;;;;;71.95;44.72;;;-1.70;99.90;-2.20;96155.00;;;;5060167;27;88057;-61
2022/01/31 09:25:58;;;;;;;65.57;42.65;;;-1.80;99.90;-2.20;96158.00;;;;5053725;27;88584;-62
2022/01/31 09:28:26;;;;;;;75.20;43.33;;;-1.70;99.90;-2.20;96152.00;;;;5054929;27;87499;-61
2022/01/31 09:30:54;;;;;;;72.05;43.13;;;-1.70;99.90;-2.20;96151.00;;;;5061466;27;86989;-62
2022/01/31 09:33:20;;;;;;;75.00;45.30;;;-1.70;99.90;-2.10;96151.00;;;;5060329;27;87478;-62
2022/01/31 09:35:47;;;;;;;70.45;41.92;;;-1.70;99.90;-2.10;96143.00;;;;5060447;27;87442;-61
2022/01/31 09:38:16;;;;;;;62.75;42.22;;;-1.60;99.90;-2.10;96153.00;;;;5061382;27;87368;-62
2022/01/31 09:40:44;;;;;;;64.25;43.95;;;-1.60;99.90;-2.00;96151.00;;;;5060937;27;87100;-62
2022/01/31 09:48:35;;;;;;;63.80;42.65;;;-1.50;99.90;-2.00;96149.00;;;;5049829;27;88359;-62
2022/01/31 09:51:10;;;;;;;74.45;45.25;;;-1.50;99.90;-2.00;96157.00;;;;5060505;27;87160;-62
2022/01/31 09:53:44;;;;;;;82.47;46.13;;;-1.50;99.90;-1.90;96153.00;;;;5041313;27;89560;-62
2022/01/31 09:56:21;;;;;;;70.35;44.25;;;-1.50;99.90;-1.90;96158.00;;;;5060965;27;87576;-62
2022/01/31 09:58:49;;;;;;;70.28;43.42;;;-1.40;99.90;-1.80;96154.00;;;;5061274;27;86998;-61
2022/01/31 10:01:34;;;;;;;80.55;44.63;;;-1.40;99.90;-1.80;96158.00;;;;5048871;27;87189;-61
2022/01/31 10:04:03;;;;;;;81.97;45.42;;;-1.30;99.90;-1.80;96153.00;;;;5053684;27;87722;-61
2022/01/31 10:06:34;;;;;;;76.00;44.90;;;-1.30;99.90;-1.70;96152.00;;;;5059731;27;87419;-61
2022/01/31 10:09:11;;;;;;;73.03;44.03;;;-1.30;99.90;-1.70;96143.00;;;;5055214;27;87105;-61
2022/01/31 10:11:45;;;;;;;77.75;45.75;;;-1.20;99.90;-1.70;96144.00;;;;5046771;27;87133;-61
2022/01/31 10:17:10;;;;;;;101.47;51.05;;;-1.40;99.90;-1.90;96143.00;;;;5059667;27;88801;-62
2022/01/31 10:19:44;;;;;;;90.50;50.72;;;-1.40;99.90;-1.90;96145.00;;;;5059775;27;87503;-62
2022/01/31 10:22:20;;;;;;;102.75;54.78;;;-1.40;99.90;-1.90;96135.00;;;;5053945;27;87045;-61
2022/01/31 10:24:51;;;;;;;92.88;51.00;;;-1.50;99.90;-1.90;96135.00;;;;5056713;27;87572;-61
2022/01/31 10:27:33;;;;;;;86.22;49.58;;;-1.50;99.90;-2.00;96131.00;;;;5056610;27;87828;-61
2022/01/31 10:30:28;;;;;;;101.60;53.15;;;-1.50;99.90;-1.90;96128.00;;;;5059849;27;87330;-61
2022/01/31 10:32:57;;;;;;;83.38;50.55;;;-1.50;99.90;-1.90;96124.00;;;;5056644;27;86614;-61
2022/01/31 10:35:31;;;;;;;96.68;51.00;;;-1.50;99.90;-1.90;96139.00;;;;5056112;27;87788;-59
2022/01/31 10:38:07;;;;;;;94.55;52.08;;;-1.40;99.90;-1.90;96132.00;;;;5059639;27;87957;-62
2022/01/31 10:57:22;;;;;;;70.18;43.67;;;-1.20;99.90;-1.60;96142.00;;;;5060002;27;87660;-61
2022/01/31 10:59:51;;;;;;;68.72;43.35;;;-1.20;99.90;-1.60;96136.00;;;;5060091;27;87945;-61
2022/01/31 11:02:25;;;;;;;74.35;44.03;;;-1.20;99.90;-1.60;96118.00;;;;5046593;27;87386;-62
2022/01/31 11:04:52;;;;;;;67.90;45.13;;;-1.10;99.90;-1.60;96129.00;;;;5014887;28;87040;-61
2022/01/31 11:07:25;;;;;;;69.10;45.20;;;-1.10;99.90;-1.60;96115.00;;;;4997196;28;88696;-61
2022/01/31 11:09:53;;;;;;;64.65;43.45;;;-1.10;99.90;-1.50;96110.00;;;;5011041;28;90568;-62
2022/01/31 11:12:23;;;;;;;63.50;41.65;;;-1.00;99.90;-1.40;96116.00;;;;5013578;28;87216;-61
2022/01/31 11:14:53;;;;;;;57.00;40.50;;;-0.90;99.90;-1.30;96122.00;;;;5012388;28;88071;-61
2022/01/31 11:17:20;;;;;;;63.63;41.90;;;-0.90;99.90;-1.40;96117.00;;;;5010270;28;89036;-62
2022/01/31 11:19:55;;;;;;;58.92;41.17;;;-0.90;99.90;-1.40;96122.00;;;;5011546;28;87151;-61